sensor_id;sensor_type;location;lat;lon;timestamp;P1;durP1;ratioP1;P2;durP2;ratioP2
60054;SDS011;45930;53.514;55.904;2023-01-05T00:11:57;10.13;;;6.53;;
60054;SDS011;45930;53.514;55.904;2023-01-05T00:16:33;10.13;;;6.57;;
60054;SDS011;45930;53.514;55.904;2023-01-05T00:21:13;10.27;;;6.40;;
60054;SDS011;45930;53.514;55.904;2023-01-05T00:25:45;8.63;;;5.63;;
60054;SDS011;45930;53.514;55.904;2023-01-05T00:36:45;11.10;;;6.38;;
60054;SDS011;45930;53.514;55.904;2023-01-05T00:51:56;9.57;;;5.78;;
60054;SDS011;45930;53.514;55.904;2023-01-05T00:53:16;9.38;;;5.57;;
60054;SDS011;45930;53.514;55.904;2023-01-05T00:54:35;12.20;;;6.82;;
60054;SDS011;45930;53.514;55.904;2023-01-05T01:00:37;10.38;;;6.32;;
60054;SDS011;45930;53.514;55.904;2023-01-05T01:06:33;10.07;;;6.25;;
60054;SDS011;45930;53.514;55.904;2023-01-05T01:07:52;10.20;;;6.07;;
60054;SDS011;45930;53.514;55.904;2023-01-05T01:32:31;9.07;;;4.85;;
60054;SDS011;45930;53.514;55.904;2023-01-05T01:33:50;9.63;;;5.55;;
60054;SDS011;45930;53.514;55.904;2023-01-05T01:39:59;8.85;;;5.63;;
60054;SDS011;45930;53.514;55.904;2023-01-05T01:46:09;12.20;;;7.85;;
60054;SDS011;45930;53.514;55.904;2023-01-05T01:52:19;10.75;;;6.47;;
60054;SDS011;45930;53.514;55.904;2023-01-05T02:26:24;12.32;;;6.22;;
60054;SDS011;45930;53.514;55.904;2023-01-05T02:31:30;13.50;;;8.13;;
60054;SDS011;45930;53.514;55.904;2023-01-05T02:32:58;10.98;;;7.65;;
60054;SDS011;45930;53.514;55.904;2023-01-05T03:12:11;11.18;;;7.40;;
60054;SDS011;45930;53.514;55.904;2023-01-05T03:14:01;11.98;;;7.38;;
60054;SDS011;45930;53.514;55.904;2023-01-05T03:23:12;10.73;;;7.22;;
60054;SDS011;45930;53.514;55.904;2023-01-05T03:24:53;13.57;;;8.30;;
60054;SDS011;45930;53.514;55.904;2023-01-05T03:29:29;13.13;;;8.02;;
60054;SDS011;45930;53.514;55.904;2023-01-05T03:45:14;12.48;;;7.78;;
60054;SDS011;45930;53.514;55.904;2023-01-05T03:46:35;13.82;;;9.02;;
60054;SDS011;45930;53.514;55.904;2023-01-05T03:52:32;14.63;;;9.10;;
60054;SDS011;45930;53.514;55.904;2023-01-05T04:17:29;15.07;;;9.07;;
60054;SDS011;45930;53.514;55.904;2023-01-05T04:37:44;15.85;;;8.50;;
60054;SDS011;45930;53.514;55.904;2023-01-05T05:16:28;15.80;;;9.25;;
60054;SDS011;45930;53.514;55.904;2023-01-05T05:33:08;13.23;;;8.75;;
60054;SDS011;45930;53.514;55.904;2023-01-05T05:34:27;13.40;;;9.05;;
60054;SDS011;45930;53.514;55.904;2023-01-05T05:43:05;14.32;;;8.23;;
60054;SDS011;45930;53.514;55.904;2023-01-05T05:44:24;16.25;;;9.70;;
60054;SDS011;45930;53.514;55.904;2023-01-05T05:45:44;18.00;;;10.45;;
60054;SDS011;45930;53.514;55.904;2023-01-05T05:47:03;18.92;;;9.82;;
60054;SDS011;45930;53.514;55.904;2023-01-05T05:48:22;15.43;;;9.32;;
60054;SDS011;45930;53.514;55.904;2023-01-05T05:49:42;12.90;;;9.52;;
60054;SDS011;45930;53.514;55.904;2023-01-05T05:51:01;13.07;;;8.82;;
60054;SDS011;45930;53.514;55.904;2023-01-05T05:52:20;16.48;;;9.55;;
60054;SDS011;45930;53.514;55.904;2023-01-05T05:53:40;14.70;;;9.25;;
60054;SDS011;45930;53.514;55.904;2023-01-05T05:54:59;13.90;;;9.05;;
60054;SDS011;45930;53.514;55.904;2023-01-05T05:56:18;15.35;;;9.93;;
60054;SDS011;45930;53.514;55.904;2023-01-05T05:57:38;13.23;;;8.55;;
60054;SDS011;45930;53.514;55.904;2023-01-05T05:58:57;15.30;;;9.25;;
60054;SDS011;45930;53.514;55.904;2023-01-05T06:00:17;17.45;;;10.30;;
60054;SDS011;45930;53.514;55.904;2023-01-05T06:01:36;16.80;;;10.13;;
60054;SDS011;45930;53.514;55.904;2023-01-05T06:02:56;16.92;;;9.95;;
60054;SDS011;45930;53.514;55.904;2023-01-05T06:04:15;17.55;;;10.50;;
60054;SDS011;45930;53.514;55.904;2023-01-05T06:05:36;18.58;;;11.15;;
60054;SDS011;45930;53.514;55.904;2023-01-05T06:06:55;19.52;;;9.90;;
60054;SDS011;45930;53.514;55.904;2023-01-05T06:08:14;15.75;;;9.00;;
60054;SDS011;45930;53.514;55.904;2023-01-05T06:09:33;18.25;;;9.70;;
60054;SDS011;45930;53.514;55.904;2023-01-05T06:10:53;15.23;;;9.25;;
60054;SDS011;45930;53.514;55.904;2023-01-05T06:12:12;15.35;;;9.57;;
60054;SDS011;45930;53.514;55.904;2023-01-05T06:13:31;15.57;;;9.88;;
60054;SDS011;45930;53.514;55.904;2023-01-05T06:14:50;15.35;;;9.68;;
60054;SDS011;45930;53.514;55.904;2023-01-05T06:16:10;15.77;;;9.10;;
60054;SDS011;45930;53.514;55.904;2023-01-05T06:18:50;19.02;;;9.18;;
60054;SDS011;45930;53.514;55.904;2023-01-05T06:21:28;15.48;;;9.43;;
60054;SDS011;45930;53.514;55.904;2023-01-05T06:22:47;17.50;;;10.15;;
60054;SDS011;45930;53.514;55.904;2023-01-05T06:24:07;19.88;;;11.07;;
60054;SDS011;45930;53.514;55.904;2023-01-05T06:25:26;17.60;;;10.20;;
60054;SDS011;45930;53.514;55.904;2023-01-05T06:26:46;21.60;;;11.57;;
60054;SDS011;45930;53.514;55.904;2023-01-05T06:28:05;19.50;;;10.48;;
60054;SDS011;45930;53.514;55.904;2023-01-05T06:29:24;19.85;;;11.05;;
60054;SDS011;45930;53.514;55.904;2023-01-05T06:30:44;19.40;;;11.00;;
60054;SDS011;45930;53.514;55.904;2023-01-05T06:33:22;19.95;;;10.85;;
60054;SDS011;45930;53.514;55.904;2023-01-05T06:36:00;15.50;;;9.88;;
60054;SDS011;45930;53.514;55.904;2023-01-05T06:37:19;19.83;;;11.90;;
60054;SDS011;45930;53.514;55.904;2023-01-05T06:38:39;21.08;;;11.48;;
60054;SDS011;45930;53.514;55.904;2023-01-05T06:41:17;20.67;;;11.70;;
60054;SDS011;45930;53.514;55.904;2023-01-05T06:47:43;17.52;;;9.93;;
60054;SDS011;45930;53.514;55.904;2023-01-05T06:56:53;14.13;;;8.15;;
60054;SDS011;45930;53.514;55.904;2023-01-05T07:27:25;26.23;;;14.35;;
60054;SDS011;45930;53.514;55.904;2023-01-05T07:33:34;24.65;;;15.45;;
60054;SDS011;45930;53.514;55.904;2023-01-05T07:39:45;26.88;;;13.98;;
60054;SDS011;45930;53.514;55.904;2023-01-05T07:51:51;37.15;;;15.48;;
60054;SDS011;45930;53.514;55.904;2023-01-05T07:53:10;34.53;;;17.20;;
60054;SDS011;45930;53.514;55.904;2023-01-05T07:54:29;34.67;;;16.45;;
60054;SDS011;45930;53.514;55.904;2023-01-05T08:00:26;27.67;;;13.80;;
60054;SDS011;45930;53.514;55.904;2023-01-05T08:01:46;31.63;;;15.63;;
60054;SDS011;45930;53.514;55.904;2023-01-05T08:03:06;30.00;;;14.85;;
60054;SDS011;45930;53.514;55.904;2023-01-05T08:05:43;27.60;;;13.07;;
60054;SDS011;45930;53.514;55.904;2023-01-05T08:07:04;23.38;;;13.27;;
60054;SDS011;45930;53.514;55.904;2023-01-05T08:08:28;23.77;;;14.05;;
60054;SDS011;45930;53.514;55.904;2023-01-05T08:09:48;21.50;;;13.13;;
60054;SDS011;45930;53.514;55.904;2023-01-05T08:16:29;24.55;;;13.82;;
60054;SDS011;45930;53.514;55.904;2023-01-05T08:17:49;27.67;;;13.55;;
60054;SDS011;45930;53.514;55.904;2023-01-05T08:23:46;23.15;;;13.23;;
60054;SDS011;45930;53.514;55.904;2023-01-05T08:25:07;25.00;;;12.80;;
60054;SDS011;45930;53.514;55.904;2023-01-05T08:26:26;27.27;;;13.52;;
60054;SDS011;45930;53.514;55.904;2023-01-05T08:27:46;23.88;;;13.50;;
60054;SDS011;45930;53.514;55.904;2023-01-05T08:38:21;24.33;;;13.00;;
60054;SDS011;45930;53.514;55.904;2023-01-05T08:39:40;27.73;;;15.30;;
60054;SDS011;45930;53.514;55.904;2023-01-05T08:42:18;23.80;;;13.38;;
60054;SDS011;45930;53.514;55.904;2023-01-05T08:48:27;26.08;;;14.43;;
60054;SDS011;45930;53.514;55.904;2023-01-05T08:55:55;19.98;;;11.95;;
60054;SDS011;45930;53.514;55.904;2023-01-05T08:57:14;20.95;;;11.23;;
60054;SDS011;45930;53.514;55.904;2023-01-05T08:58:34;22.85;;;11.93;;
60054;SDS011;45930;53.514;55.904;2023-01-05T08:59:56;21.58;;;12.15;;
60054;SDS011;45930;53.514;55.904;2023-01-05T09:01:16;17.05;;;10.85;;
60054;SDS011;45930;53.514;55.904;2023-01-05T09:07:20;29.80;;;19.27;;
60054;SDS011;45930;53.514;55.904;2023-01-05T09:08:40;31.85;;;20.15;;
60054;SDS011;45930;53.514;55.904;2023-01-05T09:10:00;34.20;;;20.30;;
60054;SDS011;45930;53.514;55.904;2023-01-05T09:11:20;29.20;;;17.73;;
60054;SDS011;45930;53.514;55.904;2023-01-05T09:12:41;24.52;;;15.43;;
60054;SDS011;45930;53.514;55.904;2023-01-05T09:15:22;19.95;;;11.73;;
60054;SDS011;45930;53.514;55.904;2023-01-05T09:16:41;19.23;;;10.40;;
60054;SDS011;45930;53.514;55.904;2023-01-05T09:18:01;20.40;;;12.20;;
60054;SDS011;45930;53.514;55.904;2023-01-05T09:19:20;24.25;;;11.45;;
60054;SDS011;45930;53.514;55.904;2023-01-05T09:20:40;18.83;;;11.50;;
60054;SDS011;45930;53.514;55.904;2023-01-05T09:23:17;19.27;;;10.85;;
60054;SDS011;45930;53.514;55.904;2023-01-05T09:24:36;21.08;;;12.00;;
60054;SDS011;45930;53.514;55.904;2023-01-05T09:25:56;22.52;;;11.43;;
60054;SDS011;45930;53.514;55.904;2023-01-05T09:31:54;17.85;;;10.85;;
60054;SDS011;45930;53.514;55.904;2023-01-05T09:33:13;22.95;;;11.63;;
60054;SDS011;45930;53.514;55.904;2023-01-05T09:39:09;19.15;;;11.10;;
60054;SDS011;45930;53.514;55.904;2023-01-05T09:45:27;19.92;;;11.35;;
60054;SDS011;45930;53.514;55.904;2023-01-05T09:46:46;20.92;;;11.40;;
60054;SDS011;45930;53.514;55.904;2023-01-05T09:52:58;18.55;;;9.98;;
60054;SDS011;45930;53.514;55.904;2023-01-05T09:54:18;21.13;;;11.05;;
60054;SDS011;45930;53.514;55.904;2023-01-05T09:55:46;18.75;;;10.30;;
60054;SDS011;45930;53.514;55.904;2023-01-05T10:01:45;18.85;;;11.05;;
60054;SDS011;45930;53.514;55.904;2023-01-05T10:13:21;20.63;;;10.68;;
60054;SDS011;45930;53.514;55.904;2023-01-05T10:14:50;16.42;;;10.93;;
60054;SDS011;45930;53.514;55.904;2023-01-05T10:16:13;19.48;;;11.52;;
60054;SDS011;45930;53.514;55.904;2023-01-05T10:22:28;17.52;;;10.07;;
60054;SDS011;45930;53.514;55.904;2023-01-05T10:36:40;17.80;;;9.98;;
60054;SDS011;45930;53.514;55.904;2023-01-05T10:48:51;23.77;;;10.77;;
60054;SDS011;45930;53.514;55.904;2023-01-05T10:51:54;22.63;;;12.38;;
60054;SDS011;45930;53.514;55.904;2023-01-05T10:54:39;20.85;;;11.70;;
60054;SDS011;45930;53.514;55.904;2023-01-05T10:56:23;20.65;;;12.52;;
60054;SDS011;45930;53.514;55.904;2023-01-05T10:57:42;21.00;;;11.57;;
60054;SDS011;45930;53.514;55.904;2023-01-05T10:59:06;20.00;;;11.70;;
60054;SDS011;45930;53.514;55.904;2023-01-05T11:00:38;21.65;;;11.15;;
60054;SDS011;45930;53.514;55.904;2023-01-05T11:01:59;25.65;;;12.57;;
60054;SDS011;45930;53.514;55.904;2023-01-05T11:03:20;21.75;;;12.43;;
60054;SDS011;45930;53.514;55.904;2023-01-05T11:04:46;19.02;;;12.15;;
60054;SDS011;45930;53.514;55.904;2023-01-05T11:15:22;23.77;;;12.40;;
60054;SDS011;45930;53.514;55.904;2023-01-05T11:16:49;28.13;;;15.57;;
60054;SDS011;45930;53.514;55.904;2023-01-05T11:23:03;27.05;;;13.77;;
60054;SDS011;45930;53.514;55.904;2023-01-05T11:25:40;29.80;;;13.88;;
60054;SDS011;45930;53.514;55.904;2023-01-05T11:27:22;25.30;;;14.73;;
60054;SDS011;45930;53.514;55.904;2023-01-05T11:33:16;24.75;;;13.25;;
60054;SDS011;45930;53.514;55.904;2023-01-05T11:34:43;24.02;;;12.75;;
60054;SDS011;45930;53.514;55.904;2023-01-05T11:36:06;25.10;;;12.10;;
60054;SDS011;45930;53.514;55.904;2023-01-05T11:37:30;22.90;;;12.88;;
60054;SDS011;45930;53.514;55.904;2023-01-05T11:38:50;26.27;;;13.18;;
60054;SDS011;45930;53.514;55.904;2023-01-05T11:40:14;25.48;;;12.23;;
60054;SDS011;45930;53.514;55.904;2023-01-05T11:41:35;22.33;;;11.95;;
60054;SDS011;45930;53.514;55.904;2023-01-05T11:42:55;21.70;;;11.35;;
60054;SDS011;45930;53.514;55.904;2023-01-05T11:44:21;23.60;;;13.70;;
60054;SDS011;45930;53.514;55.904;2023-01-05T11:45:45;20.52;;;12.55;;
60054;SDS011;45930;53.514;55.904;2023-01-05T11:47:21;27.25;;;13.15;;
60054;SDS011;45930;53.514;55.904;2023-01-05T11:48:54;21.60;;;12.15;;
60054;SDS011;45930;53.514;55.904;2023-01-05T11:50:19;22.33;;;13.40;;
60054;SDS011;45930;53.514;55.904;2023-01-05T11:51:46;21.35;;;11.43;;
60054;SDS011;45930;53.514;55.904;2023-01-05T11:53:08;23.30;;;12.88;;
60054;SDS011;45930;53.514;55.904;2023-01-05T11:54:43;23.67;;;13.30;;
60054;SDS011;45930;53.514;55.904;2023-01-05T11:56:24;23.55;;;12.88;;
60054;SDS011;45930;53.514;55.904;2023-01-05T11:57:42;19.13;;;11.77;;
60054;SDS011;45930;53.514;55.904;2023-01-05T11:59:02;22.05;;;11.77;;
60054;SDS011;45930;53.514;55.904;2023-01-05T12:00:59;22.17;;;12.32;;
60054;SDS011;45930;53.514;55.904;2023-01-05T12:02:35;19.83;;;12.23;;
60054;SDS011;45930;53.514;55.904;2023-01-05T12:07:45;19.27;;;11.88;;
60054;SDS011;45930;53.514;55.904;2023-01-05T12:22:41;16.80;;;10.70;;
60054;SDS011;45930;53.514;55.904;2023-01-05T12:27:54;21.27;;;11.50;;
60054;SDS011;45930;53.514;55.904;2023-01-05T12:36:01;21.05;;;11.98;;
60054;SDS011;45930;53.514;55.904;2023-01-05T12:37:55;24.83;;;11.25;;
60054;SDS011;45930;53.514;55.904;2023-01-05T12:41:06;18.63;;;11.07;;
60054;SDS011;45930;53.514;55.904;2023-01-05T12:49:26;21.15;;;10.73;;
60054;SDS011;45930;53.514;55.904;2023-01-05T12:50:55;21.38;;;10.07;;
60054;SDS011;45930;53.514;55.904;2023-01-05T12:53:53;21.27;;;11.63;;
60054;SDS011;45930;53.514;55.904;2023-01-05T12:55:25;24.08;;;11.82;;
60054;SDS011;45930;53.514;55.904;2023-01-05T12:56:52;17.08;;;11.18;;
60054;SDS011;45930;53.514;55.904;2023-01-05T12:58:22;23.98;;;12.73;;
60054;SDS011;45930;53.514;55.904;2023-01-05T12:59:50;24.42;;;11.85;;
60054;SDS011;45930;53.514;55.904;2023-01-05T13:01:22;18.67;;;11.05;;
60054;SDS011;45930;53.514;55.904;2023-01-05T13:02:53;21.30;;;11.55;;
60054;SDS011;45930;53.514;55.904;2023-01-05T13:05:48;30.08;;;12.50;;
60054;SDS011;45930;53.514;55.904;2023-01-05T13:07:26;26.60;;;12.23;;
60054;SDS011;45930;53.514;55.904;2023-01-05T13:08:52;23.33;;;12.75;;
60054;SDS011;45930;53.514;55.904;2023-01-05T13:10:27;28.08;;;13.30;;
60054;SDS011;45930;53.514;55.904;2023-01-05T13:12:09;23.92;;;12.82;;
60054;SDS011;45930;53.514;55.904;2023-01-05T13:13:41;27.92;;;14.77;;
60054;SDS011;45930;53.514;55.904;2023-01-05T13:16:31;32.63;;;15.27;;
60054;SDS011;45930;53.514;55.904;2023-01-05T13:17:57;25.20;;;14.57;;
60054;SDS011;45930;53.514;55.904;2023-01-05T13:22:28;22.35;;;13.30;;
60054;SDS011;45930;53.514;55.904;2023-01-05T13:23:55;25.85;;;13.98;;
60054;SDS011;45930;53.514;55.904;2023-01-05T13:25:28;23.67;;;13.30;;
60054;SDS011;45930;53.514;55.904;2023-01-05T13:26:52;28.45;;;14.10;;
60054;SDS011;45930;53.514;55.904;2023-01-05T13:28:15;28.75;;;15.32;;
60054;SDS011;45930;53.514;55.904;2023-01-05T13:29:40;28.05;;;14.85;;
60054;SDS011;45930;53.514;55.904;2023-01-05T13:31:23;28.25;;;14.52;;
60054;SDS011;45930;53.514;55.904;2023-01-05T13:35:35;29.88;;;15.60;;
60054;SDS011;45930;53.514;55.904;2023-01-05T13:38:29;28.33;;;14.95;;
60054;SDS011;45930;53.514;55.904;2023-01-05T13:40:25;31.98;;;15.27;;
60054;SDS011;45930;53.514;55.904;2023-01-05T13:43:42;36.15;;;16.63;;
60054;SDS011;45930;53.514;55.904;2023-01-05T13:51:52;25.98;;;15.27;;
60054;SDS011;45930;53.514;55.904;2023-01-05T13:57:41;26.17;;;13.80;;
60054;SDS011;45930;53.514;55.904;2023-01-05T13:59:03;30.55;;;15.65;;
60054;SDS011;45930;53.514;55.904;2023-01-05T14:01:57;22.45;;;13.90;;
60054;SDS011;45930;53.514;55.904;2023-01-05T14:03:23;27.67;;;13.77;;
60054;SDS011;45930;53.514;55.904;2023-01-05T14:04:47;24.38;;;13.68;;
60054;SDS011;45930;53.514;55.904;2023-01-05T14:06:13;26.23;;;13.27;;
60054;SDS011;45930;53.514;55.904;2023-01-05T14:10:29;24.67;;;12.85;;
60054;SDS011;45930;53.514;55.904;2023-01-05T14:17:59;22.10;;;13.20;;
60054;SDS011;45930;53.514;55.904;2023-01-05T14:20:47;27.23;;;13.48;;
60054;SDS011;45930;53.514;55.904;2023-01-05T14:22:22;24.63;;;13.43;;
60054;SDS011;45930;53.514;55.904;2023-01-05T14:23:51;25.67;;;14.07;;
60054;SDS011;45930;53.514;55.904;2023-01-05T14:51:07;28.50;;;14.43;;
60054;SDS011;45930;53.514;55.904;2023-01-05T15:34:35;30.05;;;16.00;;
60054;SDS011;45930;53.514;55.904;2023-01-05T15:57:56;36.58;;;17.50;;
60054;SDS011;45930;53.514;55.904;2023-01-05T16:08:33;40.88;;;19.88;;
60054;SDS011;45930;53.514;55.904;2023-01-05T17:00:16;49.80;;;27.08;;
60054;SDS011;45930;53.514;55.904;2023-01-05T17:01:45;62.33;;;26.83;;
60054;SDS011;45930;53.514;55.904;2023-01-05T17:07:40;46.15;;;25.38;;
60054;SDS011;45930;53.514;55.904;2023-01-05T17:09:01;57.35;;;27.45;;
60054;SDS011;45930;53.514;55.904;2023-01-05T17:19:41;51.40;;;28.30;;
60054;SDS011;45930;53.514;55.904;2023-01-05T17:21:00;59.47;;;27.67;;
60054;SDS011;45930;53.514;55.904;2023-01-05T17:31:51;40.13;;;17.60;;
60054;SDS011;45930;53.514;55.904;2023-01-05T17:56:14;30.45;;;15.13;;
60054;SDS011;45930;53.514;55.904;2023-01-05T18:05:22;34.38;;;13.93;;
60054;SDS011;45930;53.514;55.904;2023-01-05T18:34:34;63.17;;;32.35;;
60054;SDS011;45930;53.514;55.904;2023-01-05T19:03:39;17.02;;;9.63;;
60054;SDS011;45930;53.514;55.904;2023-01-05T19:09:36;13.50;;;8.60;;
60054;SDS011;45930;53.514;55.904;2023-01-05T19:10:55;11.85;;;8.43;;
60054;SDS011;45930;53.514;55.904;2023-01-05T19:12:15;14.00;;;8.85;;
60054;SDS011;45930;53.514;55.904;2023-01-05T19:13:34;13.77;;;9.60;;
60054;SDS011;45930;53.514;55.904;2023-01-05T19:14:54;14.13;;;8.45;;
60054;SDS011;45930;53.514;55.904;2023-01-05T19:17:35;8.93;;;5.40;;
60054;SDS011;45930;53.514;55.904;2023-01-05T19:18:55;10.02;;;5.93;;
60054;SDS011;45930;53.514;55.904;2023-01-05T19:20:19;10.10;;;5.55;;
60054;SDS011;45930;53.514;55.904;2023-01-05T19:21:39;7.85;;;4.82;;
60054;SDS011;45930;53.514;55.904;2023-01-05T19:22:59;8.05;;;5.05;;
60054;SDS011;45930;53.514;55.904;2023-01-05T19:24:19;10.20;;;6.03;;
60054;SDS011;45930;53.514;55.904;2023-01-05T19:25:42;10.60;;;7.13;;
60054;SDS011;45930;53.514;55.904;2023-01-05T19:28:20;7.25;;;5.20;;
60054;SDS011;45930;53.514;55.904;2023-01-05T19:29:39;9.85;;;5.90;;
60054;SDS011;45930;53.514;55.904;2023-01-05T19:31:06;10.27;;;5.93;;
60054;SDS011;45930;53.514;55.904;2023-01-05T19:32:27;11.40;;;6.03;;
60054;SDS011;45930;53.514;55.904;2023-01-05T19:33:47;9.95;;;5.88;;
60054;SDS011;45930;53.514;55.904;2023-01-05T19:35:08;9.55;;;5.72;;
60054;SDS011;45930;53.514;55.904;2023-01-05T19:36:28;9.50;;;5.93;;
60054;SDS011;45930;53.514;55.904;2023-01-05T19:37:50;11.18;;;5.55;;
60054;SDS011;45930;53.514;55.904;2023-01-05T19:39:14;10.38;;;6.32;;
60054;SDS011;45930;53.514;55.904;2023-01-05T19:40:36;13.07;;;6.43;;
60054;SDS011;45930;53.514;55.904;2023-01-05T19:41:55;10.88;;;6.00;;
60054;SDS011;45930;53.514;55.904;2023-01-05T19:43:15;14.93;;;7.50;;
60054;SDS011;45930;53.514;55.904;2023-01-05T19:44:33;10.32;;;5.93;;
60054;SDS011;45930;53.514;55.904;2023-01-05T19:47:16;9.23;;;6.50;;
60054;SDS011;45930;53.514;55.904;2023-01-05T19:48:36;9.60;;;5.88;;
60054;SDS011;45930;53.514;55.904;2023-01-05T19:49:56;10.32;;;6.85;;
60054;SDS011;45930;53.514;55.904;2023-01-05T19:51:17;11.48;;;6.72;;
60054;SDS011;45930;53.514;55.904;2023-01-05T19:52:39;16.33;;;7.25;;
60054;SDS011;45930;53.514;55.904;2023-01-05T19:53:59;10.45;;;7.22;;
60054;SDS011;45930;53.514;55.904;2023-01-05T19:55:22;11.35;;;6.53;;
60054;SDS011;45930;53.514;55.904;2023-01-05T19:56:42;10.30;;;5.97;;
60054;SDS011;45930;53.514;55.904;2023-01-05T19:58:02;13.75;;;8.27;;
60054;SDS011;45930;53.514;55.904;2023-01-05T19:59:22;11.43;;;7.35;;
60054;SDS011;45930;53.514;55.904;2023-01-05T20:00:44;9.70;;;6.43;;
60054;SDS011;45930;53.514;55.904;2023-01-05T20:02:04;15.50;;;7.82;;
60054;SDS011;45930;53.514;55.904;2023-01-05T20:03:23;21.50;;;9.32;;
60054;SDS011;45930;53.514;55.904;2023-01-05T20:06:07;20.30;;;10.85;;
60054;SDS011;45930;53.514;55.904;2023-01-05T20:07:29;20.23;;;12.70;;
60054;SDS011;45930;53.514;55.904;2023-01-05T20:08:49;18.35;;;11.18;;
60054;SDS011;45930;53.514;55.904;2023-01-05T20:10:12;20.42;;;13.13;;
60054;SDS011;45930;53.514;55.904;2023-01-05T20:11:33;20.75;;;13.52;;
60054;SDS011;45930;53.514;55.904;2023-01-05T20:12:54;20.42;;;12.05;;
60054;SDS011;45930;53.514;55.904;2023-01-05T20:14:20;18.13;;;12.05;;
60054;SDS011;45930;53.514;55.904;2023-01-05T20:15:44;20.60;;;11.85;;
60054;SDS011;45930;53.514;55.904;2023-01-05T20:17:04;20.05;;;11.52;;
60054;SDS011;45930;53.514;55.904;2023-01-05T20:18:25;17.70;;;10.77;;
60054;SDS011;45930;53.514;55.904;2023-01-05T20:19:44;17.02;;;12.43;;
60054;SDS011;45930;53.514;55.904;2023-01-05T20:21:04;20.23;;;12.65;;
60054;SDS011;45930;53.514;55.904;2023-01-05T20:22:25;20.65;;;11.73;;
60054;SDS011;45930;53.514;55.904;2023-01-05T20:23:44;20.85;;;12.90;;
60054;SDS011;45930;53.514;55.904;2023-01-05T20:26:23;21.23;;;11.73;;
60054;SDS011;45930;53.514;55.904;2023-01-05T20:27:45;21.65;;;11.80;;
60054;SDS011;45930;53.514;55.904;2023-01-05T20:29:04;20.20;;;10.80;;
60054;SDS011;45930;53.514;55.904;2023-01-05T20:30:24;21.83;;;11.70;;
60054;SDS011;45930;53.514;55.904;2023-01-05T20:31:45;18.65;;;10.32;;
60054;SDS011;45930;53.514;55.904;2023-01-05T20:33:25;17.30;;;9.35;;
60054;SDS011;45930;53.514;55.904;2023-01-05T20:34:47;15.85;;;9.27;;
60054;SDS011;45930;53.514;55.904;2023-01-05T20:36:09;18.15;;;9.95;;
60054;SDS011;45930;53.514;55.904;2023-01-05T20:37:29;17.92;;;10.50;;
60054;SDS011;45930;53.514;55.904;2023-01-05T20:38:50;14.82;;;9.55;;
60054;SDS011;45930;53.514;55.904;2023-01-05T20:40:10;16.08;;;8.93;;
60054;SDS011;45930;53.514;55.904;2023-01-05T20:41:30;15.68;;;9.80;;
60054;SDS011;45930;53.514;55.904;2023-01-05T20:42:52;15.75;;;9.55;;
60054;SDS011;45930;53.514;55.904;2023-01-05T20:45:30;15.30;;;9.32;;
60054;SDS011;45930;53.514;55.904;2023-01-05T20:46:49;14.88;;;9.43;;
60054;SDS011;45930;53.514;55.904;2023-01-05T20:48:11;16.10;;;9.70;;
60054;SDS011;45930;53.514;55.904;2023-01-05T20:49:31;17.25;;;10.63;;
60054;SDS011;45930;53.514;55.904;2023-01-05T20:50:51;17.42;;;9.07;;
60054;SDS011;45930;53.514;55.904;2023-01-05T20:53:30;18.00;;;10.43;;
60054;SDS011;45930;53.514;55.904;2023-01-05T20:54:49;18.88;;;10.95;;
60054;SDS011;45930;53.514;55.904;2023-01-05T20:56:14;16.67;;;10.68;;
60054;SDS011;45930;53.514;55.904;2023-01-05T20:57:34;14.63;;;9.70;;
60054;SDS011;45930;53.514;55.904;2023-01-05T21:00:13;17.42;;;10.05;;
60054;SDS011;45930;53.514;55.904;2023-01-05T21:01:34;13.40;;;8.77;;
60054;SDS011;45930;53.514;55.904;2023-01-05T21:02:53;16.17;;;8.57;;
60054;SDS011;45930;53.514;55.904;2023-01-05T21:04:13;15.20;;;8.73;;
60054;SDS011;45930;53.514;55.904;2023-01-05T21:05:33;13.23;;;8.98;;
60054;SDS011;45930;53.514;55.904;2023-01-05T21:06:56;13.32;;;8.27;;
60054;SDS011;45930;53.514;55.904;2023-01-05T21:08:18;14.38;;;8.23;;
60054;SDS011;45930;53.514;55.904;2023-01-05T21:09:38;17.20;;;8.77;;
60054;SDS011;45930;53.514;55.904;2023-01-05T21:11:00;14.20;;;8.55;;
60054;SDS011;45930;53.514;55.904;2023-01-05T21:12:21;14.70;;;9.02;;
60054;SDS011;45930;53.514;55.904;2023-01-05T21:13:41;13.60;;;8.07;;
60054;SDS011;45930;53.514;55.904;2023-01-05T21:15:02;13.07;;;8.73;;
60054;SDS011;45930;53.514;55.904;2023-01-05T21:16:23;13.00;;;9.52;;
60054;SDS011;45930;53.514;55.904;2023-01-05T21:17:44;13.20;;;7.28;;
60054;SDS011;45930;53.514;55.904;2023-01-05T21:19:04;14.45;;;8.35;;
60054;SDS011;45930;53.514;55.904;2023-01-05T21:20:24;14.13;;;8.32;;
60054;SDS011;45930;53.514;55.904;2023-01-05T21:21:46;13.10;;;8.13;;
60054;SDS011;45930;53.514;55.904;2023-01-05T21:23:07;15.40;;;9.18;;
60054;SDS011;45930;53.514;55.904;2023-01-05T21:24:26;16.45;;;10.07;;
60054;SDS011;45930;53.514;55.904;2023-01-05T21:25:46;18.63;;;10.38;;
60054;SDS011;45930;53.514;55.904;2023-01-05T21:27:06;14.20;;;9.30;;
60054;SDS011;45930;53.514;55.904;2023-01-05T21:28:25;12.63;;;8.73;;
60054;SDS011;45930;53.514;55.904;2023-01-05T21:29:44;15.65;;;10.25;;
60054;SDS011;45930;53.514;55.904;2023-01-05T21:32:24;14.90;;;9.45;;
60054;SDS011;45930;53.514;55.904;2023-01-05T21:33:43;14.63;;;9.30;;
60054;SDS011;45930;53.514;55.904;2023-01-05T21:35:03;16.50;;;10.38;;
60054;SDS011;45930;53.514;55.904;2023-01-05T21:36:25;17.35;;;9.38;;
60054;SDS011;45930;53.514;55.904;2023-01-05T21:37:46;17.25;;;9.38;;
60054;SDS011;45930;53.514;55.904;2023-01-05T21:40:26;15.57;;;9.40;;
60054;SDS011;45930;53.514;55.904;2023-01-05T21:41:46;15.00;;;9.20;;
60054;SDS011;45930;53.514;55.904;2023-01-05T21:43:25;13.57;;;8.98;;
60054;SDS011;45930;53.514;55.904;2023-01-05T21:44:44;14.43;;;9.95;;
60054;SDS011;45930;53.514;55.904;2023-01-05T21:46:04;13.55;;;8.50;;
60054;SDS011;45930;53.514;55.904;2023-01-05T21:47:26;14.13;;;8.25;;
60054;SDS011;45930;53.514;55.904;2023-01-05T21:48:45;16.80;;;8.20;;
60054;SDS011;45930;53.514;55.904;2023-01-05T21:50:04;15.80;;;8.70;;
60054;SDS011;45930;53.514;55.904;2023-01-05T21:51:24;14.75;;;7.97;;
60054;SDS011;45930;53.514;55.904;2023-01-05T21:53:02;14.70;;;8.43;;
60054;SDS011;45930;53.514;55.904;2023-01-05T21:54:41;12.90;;;8.40;;
60054;SDS011;45930;53.514;55.904;2023-01-05T21:56:19;11.35;;;6.90;;
60054;SDS011;45930;53.514;55.904;2023-01-05T21:57:44;12.73;;;7.72;;
60054;SDS011;45930;53.514;55.904;2023-01-05T21:59:04;13.73;;;7.55;;
60054;SDS011;45930;53.514;55.904;2023-01-05T22:00:27;13.57;;;7.60;;
60054;SDS011;45930;53.514;55.904;2023-01-05T22:01:46;10.13;;;7.50;;
60054;SDS011;45930;53.514;55.904;2023-01-05T22:03:05;11.35;;;7.00;;
60054;SDS011;45930;53.514;55.904;2023-01-05T22:04:24;11.65;;;6.60;;
60054;SDS011;45930;53.514;55.904;2023-01-05T22:05:44;8.82;;;6.13;;
60054;SDS011;45930;53.514;55.904;2023-01-05T22:07:02;11.38;;;6.60;;
60054;SDS011;45930;53.514;55.904;2023-01-05T22:08:24;12.52;;;7.72;;